sensor_id;sensor_type;location;lat;lon;timestamp;P1;durP1;ratioP1;P2;durP2;ratioP2
16820;SDS011;8527;49.740;6.604;2023-12-20T00:01:57;3.25;;;2.33;;
16820;SDS011;8527;49.740;6.604;2023-12-20T00:06:55;4.70;;;2.10;;
16820;SDS011;8527;49.740;6.604;2023-12-20T00:12:06;2.85;;;2.20;;
16820;SDS011;8527;49.740;6.604;2023-12-20T00:17:07;7.90;;;2.60;;
16820;SDS011;8527;49.740;6.604;2023-12-20T00:22:06;3.45;;;2.35;;
16820;SDS011;8527;49.740;6.604;2023-12-20T00:27:12;3.30;;;2.15;;
16820;SDS011;8527;49.740;6.604;2023-12-20T00:32:18;4.20;;;2.47;;
16820;SDS011;8527;49.740;6.604;2023-12-20T00:37:17;1.88;;;1.77;;
16820;SDS011;8527;49.740;6.604;2023-12-20T00:42:21;3.45;;;2.22;;
16820;SDS011;8527;49.740;6.604;2023-12-20T00:47:23;2.05;;;1.85;;
16820;SDS011;8527;49.740;6.604;2023-12-20T00:52:27;4.30;;;2.20;;
16820;SDS011;8527;49.740;6.604;2023-12-20T00:57:28;2.47;;;1.90;;
16820;SDS011;8527;49.740;6.604;2023-12-20T01:02:26;3.00;;;1.90;;
16820;SDS011;8527;49.740;6.604;2023-12-20T01:07:36;3.05;;;2.08;;
16820;SDS011;8527;49.740;6.604;2023-12-20T01:12:37;3.22;;;2.00;;
16820;SDS011;8527;49.740;6.604;2023-12-20T01:17:42;2.17;;;1.80;;
16820;SDS011;8527;49.740;6.604;2023-12-20T01:22:44;4.00;;;2.10;;
16820;SDS011;8527;49.740;6.604;2023-12-20T01:27:47;3.28;;;2.22;;
16820;SDS011;8527;49.740;6.604;2023-12-20T01:32:45;2.30;;;2.00;;
16820;SDS011;8527;49.740;6.604;2023-12-20T01:37:44;1.85;;;1.67;;
16820;SDS011;8527;49.740;6.604;2023-12-20T01:42:59;2.78;;;2.00;;
16820;SDS011;8527;49.740;6.604;2023-12-20T01:47:58;1.80;;;1.70;;
16820;SDS011;8527;49.740;6.604;2023-12-20T01:52:57;3.17;;;1.92;;
16820;SDS011;8527;49.740;6.604;2023-12-20T01:58:00;2.47;;;2.03;;
16820;SDS011;8527;49.740;6.604;2023-12-20T02:03:00;2.78;;;2.00;;
16820;SDS011;8527;49.740;6.604;2023-12-20T02:07:59;2.45;;;2.25;;
16820;SDS011;8527;49.740;6.604;2023-12-20T02:13:01;1.80;;;1.65;;
16820;SDS011;8527;49.740;6.604;2023-12-20T02:18:01;2.42;;;1.90;;
16820;SDS011;8527;49.740;6.604;2023-12-20T02:23:02;2.45;;;2.05;;
16820;SDS011;8527;49.740;6.604;2023-12-20T02:28:04;2.45;;;1.83;;
16820;SDS011;8527;49.740;6.604;2023-12-20T02:33:07;2.60;;;2.20;;
16820;SDS011;8527;49.740;6.604;2023-12-20T02:38:12;2.30;;;2.10;;
16820;SDS011;8527;49.740;6.604;2023-12-20T02:43:11;2.20;;;2.00;;
16820;SDS011;8527;49.740;6.604;2023-12-20T02:48:09;2.22;;;2.03;;
16820;SDS011;8527;49.740;6.604;2023-12-20T02:53:07;2.53;;;2.33;;
16820;SDS011;8527;49.740;6.604;2023-12-20T02:58:08;3.67;;;2.60;;
16820;SDS011;8527;49.740;6.604;2023-12-20T03:03:07;3.55;;;2.70;;
16820;SDS011;8527;49.740;6.604;2023-12-20T03:08:07;2.92;;;2.50;;
16820;SDS011;8527;49.740;6.604;2023-12-20T03:13:09;7.90;;;2.80;;
16820;SDS011;8527;49.740;6.604;2023-12-20T03:18:07;2.72;;;2.28;;
16820;SDS011;8527;49.740;6.604;2023-12-20T03:23:13;2.55;;;2.35;;
16820;SDS011;8527;49.740;6.604;2023-12-20T03:28:17;3.78;;;2.67;;
16820;SDS011;8527;49.740;6.604;2023-12-20T03:33:19;3.22;;;2.55;;
16820;SDS011;8527;49.740;6.604;2023-12-20T03:38:17;3.25;;;2.50;;
16820;SDS011;8527;49.740;6.604;2023-12-20T03:43:18;2.70;;;2.25;;
16820;SDS011;8527;49.740;6.604;2023-12-20T03:48:16;3.08;;;2.28;;
16820;SDS011;8527;49.740;6.604;2023-12-20T03:53:15;2.92;;;2.25;;
16820;SDS011;8527;49.740;6.604;2023-12-20T03:58:13;2.97;;;2.50;;
16820;SDS011;8527;49.740;6.604;2023-12-20T04:03:23;5.45;;;2.30;;
16820;SDS011;8527;49.740;6.604;2023-12-20T04:08:23;4.35;;;2.30;;
16820;SDS011;8527;49.740;6.604;2023-12-20T04:13:26;2.42;;;2.20;;
16820;SDS011;8527;49.740;6.604;2023-12-20T04:18:31;3.63;;;2.50;;
16820;SDS011;8527;49.740;6.604;2023-12-20T04:23:30;3.92;;;2.78;;
16820;SDS011;8527;49.740;6.604;2023-12-20T04:28:31;3.53;;;2.60;;
16820;SDS011;8527;49.740;6.604;2023-12-20T04:33:29;6.05;;;2.83;;
16820;SDS011;8527;49.740;6.604;2023-12-20T04:38:30;5.65;;;2.65;;
16820;SDS011;8527;49.740;6.604;2023-12-20T04:43:40;4.97;;;2.80;;
16820;SDS011;8527;49.740;6.604;2023-12-20T04:48:40;3.78;;;2.60;;
16820;SDS011;8527;49.740;6.604;2023-12-20T04:53:42;5.10;;;2.45;;
16820;SDS011;8527;49.740;6.604;2023-12-20T04:58:46;8.20;;;2.75;;
16820;SDS011;8527;49.740;6.604;2023-12-20T05:03:44;3.00;;;1.95;;
16820;SDS011;8527;49.740;6.604;2023-12-20T05:08:48;3.63;;;2.28;;
16820;SDS011;8527;49.740;6.604;2023-12-20T05:13:52;3.80;;;2.20;;
16820;SDS011;8527;49.740;6.604;2023-12-20T05:18:51;3.67;;;1.85;;
16820;SDS011;8527;49.740;6.604;2023-12-20T05:23:55;2.40;;;1.65;;
16820;SDS011;8527;49.740;6.604;2023-12-20T05:29:07;7.15;;;2.00;;
16820;SDS011;8527;49.740;6.604;2023-12-20T05:34:06;4.43;;;2.17;;
16820;SDS011;8527;49.740;6.604;2023-12-20T05:39:05;6.00;;;1.98;;
16820;SDS011;8527;49.740;6.604;2023-12-20T05:44:03;4.55;;;1.90;;
16820;SDS011;8527;49.740;6.604;2023-12-20T05:49:05;3.50;;;2.05;;
16820;SDS011;8527;49.740;6.604;2023-12-20T05:54:04;10.95;;;1.73;;
16820;SDS011;8527;49.740;6.604;2023-12-20T05:59:02;4.80;;;1.73;;
16820;SDS011;8527;49.740;6.604;2023-12-20T06:04:03;4.50;;;1.80;;
16820;SDS011;8527;49.740;6.604;2023-12-20T06:09:02;4.32;;;1.77;;
16820;SDS011;8527;49.740;6.604;2023-12-20T06:14:00;3.40;;;1.77;;
16820;SDS011;8527;49.740;6.604;2023-12-20T06:18:59;6.05;;;2.10;;
16820;SDS011;8527;49.740;6.604;2023-12-20T06:24:00;5.80;;;2.20;;
16820;SDS011;8527;49.740;6.604;2023-12-20T06:28:59;5.47;;;2.03;;
16820;SDS011;8527;49.740;6.604;2023-12-20T06:33:57;17.77;;;6.75;;
16820;SDS011;8527;49.740;6.604;2023-12-20T06:38:55;22.63;;;9.60;;
16820;SDS011;8527;49.740;6.604;2023-12-20T06:43:56;10.40;;;4.40;;
16820;SDS011;8527;49.740;6.604;2023-12-20T06:48:55;6.03;;;2.65;;
16820;SDS011;8527;49.740;6.604;2023-12-20T06:54:01;7.93;;;2.43;;
16820;SDS011;8527;49.740;6.604;2023-12-20T06:59:08;10.40;;;3.05;;
16820;SDS011;8527;49.740;6.604;2023-12-20T07:04:07;13.45;;;3.42;;
16820;SDS011;8527;49.740;6.604;2023-12-20T07:09:06;8.10;;;3.42;;
16820;SDS011;8527;49.740;6.604;2023-12-20T07:14:05;26.80;;;13.50;;
16820;SDS011;8527;49.740;6.604;2023-12-20T07:19:09;17.08;;;7.95;;
16820;SDS011;8527;49.740;6.604;2023-12-20T07:24:07;12.63;;;3.47;;
16820;SDS011;8527;49.740;6.604;2023-12-20T07:29:06;8.50;;;2.70;;
16820;SDS011;8527;49.740;6.604;2023-12-20T07:34:07;10.88;;;3.17;;
16820;SDS011;8527;49.740;6.604;2023-12-20T07:39:05;12.85;;;3.38;;
16820;SDS011;8527;49.740;6.604;2023-12-20T07:44:04;10.57;;;3.10;;
16820;SDS011;8527;49.740;6.604;2023-12-20T07:49:03;13.32;;;3.60;;
16820;SDS011;8527;49.740;6.604;2023-12-20T07:54:07;12.50;;;3.38;;
16820;SDS011;8527;49.740;6.604;2023-12-20T07:59:05;9.82;;;3.05;;
16820;SDS011;8527;49.740;6.604;2023-12-20T08:04:04;11.55;;;3.35;;
16820;SDS011;8527;49.740;6.604;2023-12-20T08:09:08;11.10;;;3.45;;
16820;SDS011;8527;49.740;6.604;2023-12-20T08:14:06;11.73;;;3.58;;
16820;SDS011;8527;49.740;6.604;2023-12-20T08:19:05;17.42;;;3.67;;
16820;SDS011;8527;49.740;6.604;2023-12-20T08:24:03;9.98;;;3.25;;
16820;SDS011;8527;49.740;6.604;2023-12-20T08:29:05;13.07;;;3.63;;
16820;SDS011;8527;49.740;6.604;2023-12-20T08:34:04;11.23;;;4.15;;
16820;SDS011;8527;49.740;6.604;2023-12-20T08:39:06;19.00;;;4.43;;
16820;SDS011;8527;49.740;6.604;2023-12-20T08:44:08;13.82;;;4.07;;
16820;SDS011;8527;49.740;6.604;2023-12-20T08:49:12;21.60;;;5.30;;
16820;SDS011;8527;49.740;6.604;2023-12-20T08:54:13;12.67;;;4.53;;
16820;SDS011;8527;49.740;6.604;2023-12-20T08:59:15;17.10;;;5.32;;
16820;SDS011;8527;49.740;6.604;2023-12-20T09:04:13;15.30;;;5.53;;
16820;SDS011;8527;49.740;6.604;2023-12-20T09:09:12;14.88;;;5.15;;
16820;SDS011;8527;49.740;6.604;2023-12-20T09:14:16;14.30;;;4.85;;
16820;SDS011;8527;49.740;6.604;2023-12-20T09:19:17;17.95;;;5.30;;
16820;SDS011;8527;49.740;6.604;2023-12-20T09:24:16;15.05;;;5.38;;
16820;SDS011;8527;49.740;6.604;2023-12-20T09:29:17;13.93;;;4.85;;
16820;SDS011;8527;49.740;6.604;2023-12-20T09:34:18;13.57;;;5.13;;
16820;SDS011;8527;49.740;6.604;2023-12-20T09:39:17;17.80;;;5.55;;
16820;SDS011;8527;49.740;6.604;2023-12-20T09:44:24;12.10;;;4.70;;
16820;SDS011;8527;49.740;6.604;2023-12-20T09:49:23;16.95;;;5.07;;
16820;SDS011;8527;49.740;6.604;2023-12-20T09:54:23;18.63;;;4.95;;
16820;SDS011;8527;49.740;6.604;2023-12-20T09:59:21;15.48;;;4.90;;
16820;SDS011;8527;49.740;6.604;2023-12-20T10:04:27;17.67;;;4.55;;
16820;SDS011;8527;49.740;6.604;2023-12-20T10:09:31;15.30;;;4.18;;
16820;SDS011;8527;49.740;6.604;2023-12-20T10:14:32;17.25;;;4.30;;
16820;SDS011;8527;49.740;6.604;2023-12-20T10:19:40;14.65;;;3.92;;
16820;SDS011;8527;49.740;6.604;2023-12-20T10:24:40;12.95;;;3.85;;
16820;SDS011;8527;49.740;6.604;2023-12-20T10:29:41;13.85;;;3.53;;
16820;SDS011;8527;49.740;6.604;2023-12-20T10:34:40;20.98;;;4.72;;
16820;SDS011;8527;49.740;6.604;2023-12-20T10:39:38;10.35;;;3.33;;
16820;SDS011;8527;49.740;6.604;2023-12-20T10:44:44;9.88;;;3.35;;
16820;SDS011;8527;49.740;6.604;2023-12-20T10:49:45;24.48;;;4.57;;
16820;SDS011;8527;49.740;6.604;2023-12-20T10:54:44;13.82;;;3.40;;
16820;SDS011;8527;49.740;6.604;2023-12-20T10:59:45;14.95;;;3.50;;
16820;SDS011;8527;49.740;6.604;2023-12-20T11:04:47;14.60;;;3.30;;
16820;SDS011;8527;49.740;6.604;2023-12-20T11:09:54;8.55;;;2.90;;
16820;SDS011;8527;49.740;6.604;2023-12-20T11:15:00;13.57;;;3.35;;
16820;SDS011;8527;49.740;6.604;2023-12-20T11:20:05;13.13;;;3.22;;
16820;SDS011;8527;49.740;6.604;2023-12-20T11:25:07;15.43;;;3.25;;
16820;SDS011;8527;49.740;6.604;2023-12-20T11:30:10;12.65;;;2.80;;
16820;SDS011;8527;49.740;6.604;2023-12-20T11:40:20;19.25;;;4.25;;
16820;SDS011;8527;49.740;6.604;2023-12-20T11:45:24;9.73;;;3.20;;
16820;SDS011;8527;49.740;6.604;2023-12-20T11:50:27;12.43;;;2.97;;
16820;SDS011;8527;49.740;6.604;2023-12-20T11:55:26;12.23;;;3.00;;
16820;SDS011;8527;49.740;6.604;2023-12-20T12:00:27;17.73;;;3.22;;
16820;SDS011;8527;49.740;6.604;2023-12-20T12:05:26;15.82;;;3.05;;
16820;SDS011;8527;49.740;6.604;2023-12-20T12:10:28;12.85;;;3.35;;
16820;SDS011;8527;49.740;6.604;2023-12-20T12:15:29;10.05;;;3.05;;
16820;SDS011;8527;49.740;6.604;2023-12-20T12:20:28;11.57;;;2.70;;
16820;SDS011;8527;49.740;6.604;2023-12-20T12:25:34;11.10;;;2.75;;
16820;SDS011;8527;49.740;6.604;2023-12-20T12:30:36;13.07;;;2.90;;
16820;SDS011;8527;49.740;6.604;2023-12-20T12:35:35;8.00;;;2.70;;
16820;SDS011;8527;49.740;6.604;2023-12-20T12:40:34;7.78;;;2.50;;
16820;SDS011;8527;49.740;6.604;2023-12-20T12:45:33;9.07;;;2.55;;
16820;SDS011;8527;49.740;6.604;2023-12-20T12:50:34;10.95;;;2.75;;
16820;SDS011;8527;49.740;6.604;2023-12-20T12:55:34;15.98;;;3.42;;
16820;SDS011;8527;49.740;6.604;2023-12-20T13:00:33;12.68;;;2.60;;
16820;SDS011;8527;49.740;6.604;2023-12-20T13:05:34;14.57;;;2.80;;
16820;SDS011;8527;49.740;6.604;2023-12-20T13:10:33;12.63;;;3.35;;
16820;SDS011;8527;49.740;6.604;2023-12-20T13:15:31;13.07;;;3.10;;
16820;SDS011;8527;49.740;6.604;2023-12-20T13:20:35;13.00;;;3.53;;
16820;SDS011;8527;49.740;6.604;2023-12-20T13:25:35;13.25;;;3.10;;
16820;SDS011;8527;49.740;6.604;2023-12-20T13:30:38;12.20;;;2.90;;
16820;SDS011;8527;49.740;6.604;2023-12-20T13:35:40;12.45;;;3.60;;
16820;SDS011;8527;49.740;6.604;2023-12-20T13:40:42;14.85;;;3.40;;
16820;SDS011;8527;49.740;6.604;2023-12-20T13:45:43;12.18;;;3.40;;
16820;SDS011;8527;49.740;6.604;2023-12-20T13:50:44;14.32;;;3.40;;
16820;SDS011;8527;49.740;6.604;2023-12-20T13:55:43;12.93;;;3.80;;
16820;SDS011;8527;49.740;6.604;2023-12-20T14:00:44;17.05;;;4.63;;
16820;SDS011;8527;49.740;6.604;2023-12-20T14:05:45;12.32;;;3.08;;
16820;SDS011;8527;49.740;6.604;2023-12-20T14:10:47;15.30;;;3.30;;
16820;SDS011;8527;49.740;6.604;2023-12-20T14:15:45;14.88;;;4.40;;
16820;SDS011;8527;49.740;6.604;2023-12-20T14:20:47;9.30;;;3.58;;
16820;SDS011;8527;49.740;6.604;2023-12-20T14:25:49;14.38;;;3.33;;
16820;SDS011;8527;49.740;6.604;2023-12-20T14:30:51;14.50;;;4.03;;
16820;SDS011;8527;49.740;6.604;2023-12-20T14:35:52;14.43;;;3.10;;
16820;SDS011;8527;49.740;6.604;2023-12-20T14:40:53;17.35;;;3.90;;
16820;SDS011;8527;49.740;6.604;2023-12-20T14:45:52;13.95;;;3.78;;
16820;SDS011;8527;49.740;6.604;2023-12-20T14:50:53;16.02;;;3.47;;
16820;SDS011;8527;49.740;6.604;2023-12-20T14:55:57;10.93;;;3.30;;
16820;SDS011;8527;49.740;6.604;2023-12-20T15:00:57;16.63;;;4.18;;
16820;SDS011;8527;49.740;6.604;2023-12-20T15:05:58;17.25;;;4.55;;
16820;SDS011;8527;49.740;6.604;2023-12-20T15:10:57;12.63;;;3.33;;
16820;SDS011;8527;49.740;6.604;2023-12-20T15:15:56;19.83;;;4.60;;
16820;SDS011;8527;49.740;6.604;2023-12-20T15:20:54;12.00;;;3.53;;
16820;SDS011;8527;49.740;6.604;2023-12-20T15:25:55;9.82;;;3.88;;
16820;SDS011;8527;49.740;6.604;2023-12-20T15:30:54;12.55;;;4.10;;
16820;SDS011;8527;49.740;6.604;2023-12-20T15:35:53;15.65;;;3.97;;
16820;SDS011;8527;49.740;6.604;2023-12-20T15:40:51;14.13;;;4.25;;
16820;SDS011;8527;49.740;6.604;2023-12-20T15:45:52;16.27;;;3.65;;
16820;SDS011;8527;49.740;6.604;2023-12-20T15:50:50;13.50;;;4.65;;
16820;SDS011;8527;49.740;6.604;2023-12-20T15:55:49;14.48;;;3.47;;
16820;SDS011;8527;49.740;6.604;2023-12-20T16:00:53;20.73;;;4.13;;
16820;SDS011;8527;49.740;6.604;2023-12-20T16:05:52;11.32;;;3.38;;
16820;SDS011;8527;49.740;6.604;2023-12-20T16:10:53;17.35;;;4.43;;
16820;SDS011;8527;49.740;6.604;2023-12-20T16:15:54;12.73;;;4.13;;
16820;SDS011;8527;49.740;6.604;2023-12-20T16:20:54;13.80;;;3.65;;
16820;SDS011;8527;49.740;6.604;2023-12-20T16:25:52;13.20;;;3.30;;
16820;SDS011;8527;49.740;6.604;2023-12-20T16:30:51;17.30;;;4.07;;
16820;SDS011;8527;49.740;6.604;2023-12-20T16:35:53;12.13;;;3.63;;
16820;SDS011;8527;49.740;6.604;2023-12-20T16:40:53;15.35;;;6.15;;
16820;SDS011;8527;49.740;6.604;2023-12-20T16:45:51;16.27;;;4.22;;
16820;SDS011;8527;49.740;6.604;2023-12-20T16:51:01;13.13;;;3.50;;
16820;SDS011;8527;49.740;6.604;2023-12-20T16:55:59;13.13;;;3.97;;
16820;SDS011;8527;49.740;6.604;2023-12-20T17:01:00;23.13;;;4.45;;
16820;SDS011;8527;49.740;6.604;2023-12-20T17:06:01;14.02;;;3.42;;
16820;SDS011;8527;49.740;6.604;2023-12-20T17:11:02;12.95;;;4.07;;
16820;SDS011;8527;49.740;6.604;2023-12-20T17:16:01;8.73;;;3.35;;
16820;SDS011;8527;49.740;6.604;2023-12-20T17:21:02;10.63;;;4.10;;
16820;SDS011;8527;49.740;6.604;2023-12-20T17:26:01;12.88;;;3.95;;
16820;SDS011;8527;49.740;6.604;2023-12-20T17:31:06;11.45;;;3.53;;
16820;SDS011;8527;49.740;6.604;2023-12-20T17:36:13;17.80;;;3.78;;
16820;SDS011;8527;49.740;6.604;2023-12-20T17:41:12;14.38;;;4.10;;
16820;SDS011;8527;49.740;6.604;2023-12-20T17:46:10;12.75;;;4.13;;
16820;SDS011;8527;49.740;6.604;2023-12-20T17:51:09;17.75;;;4.55;;
16820;SDS011;8527;49.740;6.604;2023-12-20T17:56:10;14.35;;;5.10;;
16820;SDS011;8527;49.740;6.604;2023-12-20T18:01:11;17.23;;;4.28;;
16820;SDS011;8527;49.740;6.604;2023-12-20T18:06:10;17.55;;;6.55;;
16820;SDS011;8527;49.740;6.604;2023-12-20T18:11:17;13.23;;;3.80;;
16820;SDS011;8527;49.740;6.604;2023-12-20T18:16:18;15.05;;;4.00;;
16820;SDS011;8527;49.740;6.604;2023-12-20T18:21:16;15.13;;;4.05;;
16820;SDS011;8527;49.740;6.604;2023-12-20T18:26:18;12.45;;;3.70;;
16820;SDS011;8527;49.740;6.604;2023-12-20T18:31:16;17.65;;;4.63;;
16820;SDS011;8527;49.740;6.604;2023-12-20T18:36:17;23.98;;;7.28;;
16820;SDS011;8527;49.740;6.604;2023-12-20T18:41:23;29.85;;;14.82;;
16820;SDS011;8527;49.740;6.604;2023-12-20T18:46:24;10.98;;;5.20;;
16820;SDS011;8527;49.740;6.604;2023-12-20T18:51:22;19.30;;;7.90;;
16820;SDS011;8527;49.740;6.604;2023-12-20T18:56:24;12.35;;;5.25;;
16820;SDS011;8527;49.740;6.604;2023-12-20T19:01:25;15.95;;;6.10;;
16820;SDS011;8527;49.740;6.604;2023-12-20T19:06:32;13.75;;;5.72;;
16820;SDS011;8527;49.740;6.604;2023-12-20T19:11:34;16.65;;;5.55;;
16820;SDS011;8527;49.740;6.604;2023-12-20T19:16:34;17.80;;;6.05;;
16820;SDS011;8527;49.740;6.604;2023-12-20T19:21:33;15.50;;;5.28;;
16820;SDS011;8527;49.740;6.604;2023-12-20T19:26:34;15.20;;;6.20;;
16820;SDS011;8527;49.740;6.604;2023-12-20T19:31:33;13.70;;;5.57;;
16820;SDS011;8527;49.740;6.604;2023-12-20T19:36:38;11.40;;;4.43;;
16820;SDS011;8527;49.740;6.604;2023-12-20T19:41:41;15.38;;;6.47;;
16820;SDS011;8527;49.740;6.604;2023-12-20T19:46:39;17.25;;;4.85;;
16820;SDS011;8527;49.740;6.604;2023-12-20T19:51:41;14.65;;;5.47;;
16820;SDS011;8527;49.740;6.604;2023-12-20T19:56:42;14.80;;;5.00;;
16820;SDS011;8527;49.740;6.604;2023-12-20T20:01:40;10.38;;;4.22;;
16820;SDS011;8527;49.740;6.604;2023-12-20T20:06:40;15.20;;;5.13;;
16820;SDS011;8527;49.740;6.604;2023-12-20T20:11:38;10.65;;;5.07;;
16820;SDS011;8527;49.740;6.604;2023-12-20T20:16:39;11.25;;;4.60;;
16820;SDS011;8527;49.740;6.604;2023-12-20T20:21:37;11.80;;;4.80;;
16820;SDS011;8527;49.740;6.604;2023-12-20T20:26:36;9.02;;;4.45;;
16820;SDS011;8527;49.740;6.604;2023-12-20T20:31:40;16.10;;;5.57;;
16820;SDS011;8527;49.740;6.604;2023-12-20T20:36:38;16.48;;;6.50;;
16820;SDS011;8527;49.740;6.604;2023-12-20T20:41:37;10.85;;;5.22;;
16820;SDS011;8527;49.740;6.604;2023-12-20T20:46:41;14.90;;;6.00;;
16820;SDS011;8527;49.740;6.604;2023-12-20T20:51:40;13.85;;;5.47;;
16820;SDS011;8527;49.740;6.604;2023-12-20T20:56:41;10.15;;;4.70;;
16820;SDS011;8527;49.740;6.604;2023-12-20T21:01:42;10.52;;;4.65;;
16820;SDS011;8527;49.740;6.604;2023-12-20T21:06:41;15.05;;;5.30;;
16820;SDS011;8527;49.740;6.604;2023-12-20T21:11:42;10.48;;;5.57;;
16820;SDS011;8527;49.740;6.604;2023-12-20T21:16:46;11.15;;;4.38;;
16820;SDS011;8527;49.740;6.604;2023-12-20T21:21:47;13.25;;;4.35;;
16820;SDS011;8527;49.740;6.604;2023-12-20T21:26:46;6.65;;;4.45;;
16820;SDS011;8527;49.740;6.604;2023-12-20T21:31:47;7.32;;;4.13;;
16820;SDS011;8527;49.740;6.604;2023-12-20T21:36:46;10.57;;;4.05;;
16820;SDS011;8527;49.740;6.604;2023-12-20T21:41:47;8.90;;;4.32;;
16820;SDS011;8527;49.740;6.604;2023-12-20T21:46:49;9.20;;;4.03;;
16820;SDS011;8527;49.740;6.604;2023-12-20T21:51:47;8.55;;;3.50;;
16820;SDS011;8527;49.740;6.604;2023-12-20T21:56:46;8.20;;;3.55;;
16820;SDS011;8527;49.740;6.604;2023-12-20T22:01:46;7.57;;;3.30;;
16820;SDS011;8527;49.740;6.604;2023-12-20T22:06:47;7.18;;;3.38;;
16820;SDS011;8527;49.740;6.604;2023-12-20T22:11:45;9.23;;;3.22;;
16820;SDS011;8527;49.740;6.604;2023-12-20T22:16:43;8.68;;;3.80;;
16820;SDS011;8527;49.740;6.604;2023-12-20T22:21:47;9.73;;;3.65;;
16820;SDS011;8527;49.740;6.604;2023-12-20T22:26:47;13.25;;;3.90;;
16820;SDS011;8527;49.740;6.604;2023-12-20T22:31:45;7.15;;;3.55;;
16820;SDS011;8527;49.740;6.604;2023-12-20T22:36:47;8.43;;;3.30;;
16820;SDS011;8527;49.740;6.604;2023-12-20T22:41:45;7.95;;;3.22;;
16820;SDS011;8527;49.740;6.604;2023-12-20T22:46:44;8.63;;;3.28;;
16820;SDS011;8527;49.740;6.604;2023-12-20T22:51:42;8.85;;;3.30;;
16820;SDS011;8527;49.740;6.604;2023-12-20T22:56:43;10.60;;;3.10;;
16820;SDS011;8527;49.740;6.604;2023-12-20T23:01:48;8.07;;;2.70;;
16820;SDS011;8527;49.740;6.604;2023-12-20T23:06:46;4.97;;;2.50;;
16820;SDS011;8527;49.740;6.604;2023-12-20T23:11:49;4.25;;;2.70;;
16820;SDS011;8527;49.740;6.604;2023-12-20T23:16:47;5.30;;;1.83;;
16820;SDS011;8527;49.740;6.604;2023-12-20T23:21:51;2.58;;;1.88;;
16820;SDS011;8527;49.740;6.604;2023-12-20T23:26:55;3.22;;;1.88;;
16820;SDS011;8527;49.740;6.604;2023-12-20T23:31:55;2.53;;;1.98;;
16820;SDS011;8527;49.740;6.604;2023-12-20T23:36:54;3.50;;;1.85;;
16820;SDS011;8527;49.740;6.604;2023-12-20T23:42:01;1.63;;;1.45;;
16820;SDS011;8527;49.740;6.604;2023-12-20T23:47:03;2.42;;;1.80;;
16820;SDS011;8527;49.740;6.604;2023-12-20T23:52:02;2.35;;;1.92;;
16820;SDS011;8527;49.740;6.604;2023-12-20T23:57:06;3.78;;;1.80;;
